createdAt,value
2023-03-27T00:00:19.793Z,161.28
2023-03-27T00:04:19.841Z,164.46
2023-03-27T00:05:19.881Z,167.71
2023-03-27T00:06:19.929Z,168.92
2023-03-27T00:07:20.019Z,167.77
2023-03-27T00:08:20.038Z,159.89
2023-03-27T00:09:20.120Z,164.02
2023-03-27T00:10:20.162Z,167.45
2023-03-27T00:11:20.242Z,165.12
2023-03-27T00:12:20.317Z,163.97
2023-03-27T00:13:20.375Z,165.05
2023-03-27T00:14:20.420Z,161.82
2023-03-27T00:15:20.458Z,163.39
2023-03-27T00:16:20.556Z,159.19
2023-03-27T00:17:20.623Z,158.56
2023-03-27T00:18:20.685Z,157.16
2023-03-27T00:19:20.723Z,150.76
2023-03-27T00:20:20.791Z,151.08
2023-03-27T00:21:20.853Z,151.06
2023-03-27T00:22:20.908Z,154.20
2023-03-27T00:23:20.942Z,158.28
2023-03-27T00:24:21.018Z,163.20
2023-03-27T00:25:21.067Z,160.21
2023-03-27T00:26:21.157Z,156.94
2023-03-27T00:27:21.225Z,155.33
2023-03-27T00:28:21.273Z,153.97
2023-03-27T00:29:21.322Z,150.41
2023-03-27T00:30:21.402Z,157.17
2023-03-27T00:31:21.520Z,149.87
2023-03-27T00:32:21.592Z,146.83
2023-03-27T00:33:21.604Z,147.21
2023-03-27T00:34:21.654Z,145.54
2023-03-27T00:35:21.745Z,140.44
2023-03-27T00:36:21.750Z,142.17
2023-03-27T00:37:21.835Z,138.42
2023-03-27T00:38:21.899Z,136.99
2023-03-27T00:39:21.991Z,136.35
2023-03-27T00:40:22.020Z,134.63
2023-03-27T00:41:22.182Z,135.97
2023-03-27T00:42:22.129Z,137.14
2023-03-27T00:43:22.182Z,137.01
2023-03-27T00:44:22.260Z,138.14
2023-03-27T00:45:22.374Z,138.46
2023-03-27T00:46:22.422Z,135.00
2023-03-27T00:47:22.469Z,133.21
2023-03-27T00:48:22.509Z,136.49
2023-03-27T00:49:22.580Z,136.27
2023-03-27T00:50:22.616Z,133.49
2023-03-27T00:51:22.686Z,132.29
2023-03-27T00:52:22.791Z,133.09
2023-03-27T00:53:22.836Z,131.09
2023-03-27T00:54:22.906Z,133.69
2023-03-27T00:55:22.937Z,132.43
2023-03-27T00:56:22.991Z,135.73
2023-03-27T00:57:23.052Z,138.98
2023-03-27T00:58:23.165Z,142.07
2023-03-27T00:59:23.180Z,142.05
2023-03-27T01:00:23.247Z,148.65
2023-03-27T01:01:23.354Z,144.45
2023-03-27T01:02:23.426Z,146.15
2023-03-27T01:03:23.576Z,144.18
2023-03-27T01:04:23.474Z,139.30
2023-03-27T01:05:23.549Z,143.87
2023-03-27T01:06:23.599Z,141.48
2023-03-27T01:07:23.679Z,142.22
2023-03-27T01:08:24.231Z,146.85
2023-03-27T01:13:24.011Z,151.64
2023-03-27T01:14:24.071Z,152.51
2023-03-27T01:15:24.142Z,155.69
2023-03-27T01:16:24.217Z,154.63
2023-03-27T01:17:24.289Z,149.63
2023-03-27T01:18:24.332Z,151.89
2023-03-27T01:19:24.396Z,151.67
2023-03-27T01:20:24.456Z,149.67
2023-03-27T01:21:24.478Z,147.23
2023-03-27T01:22:24.549Z,147.50
2023-03-27T01:23:35.752Z,147.07
2023-03-27T01:24:25.627Z,147.24
2023-03-27T01:25:24.621Z,147.29
2023-03-27T01:26:35.306Z,147.36
2023-03-27T01:27:25.577Z,147.27
2023-03-27T01:39:25.116Z,248.37
2023-03-27T01:40:25.200Z,249.70
2023-03-27T01:47:25.175Z,201.33
2023-03-27T01:48:25.170Z,200.41
2023-03-27T01:49:25.220Z,195.26
2023-03-27T01:50:25.249Z,197.01
2023-03-27T01:51:25.311Z,195.80
2023-03-27T01:52:25.344Z,193.94
2023-03-27T01:53:25.382Z,195.46
2023-03-27T01:54:25.391Z,191.71
2023-03-27T01:55:25.418Z,189.61
2023-03-27T01:56:25.437Z,191.33
2023-03-27T01:57:25.464Z,191.13
2023-03-27T01:58:25.519Z,192.18
2023-03-27T01:59:25.520Z,192.08
2023-03-27T02:00:25.615Z,191.77
2023-03-27T02:01:25.654Z,193.13
2023-03-27T02:05:25.572Z,186.62
2023-03-27T02:06:25.603Z,187.58
2023-03-27T02:07:25.631Z,186.74
2023-03-27T02:08:25.566Z,184.96
2023-03-27T02:09:25.599Z,185.93
2023-03-27T02:10:25.591Z,188.94
2023-03-27T02:11:25.608Z,181.98
2023-03-27T02:17:25.587Z,185.66
2023-03-27T02:20:25.564Z,184.72
2023-03-27T02:21:25.561Z,188.32
2023-03-27T02:22:38.394Z,191.17
2023-03-27T02:23:26.623Z,191.33
2023-03-27T02:26:25.575Z,191.32
2023-03-27T02:27:25.549Z,189.95
2023-03-27T02:33:25.536Z,192.37
2023-03-27T02:35:25.548Z,192.59
2023-03-27T02:38:25.482Z,190.24
2023-03-27T02:43:25.639Z,191.44
2023-03-27T02:44:25.686Z,189.79
2023-03-27T02:45:25.780Z,188.41
2023-03-27T02:46:25.873Z,183.45
2023-03-27T02:47:25.913Z,190.72
2023-03-27T02:48:25.953Z,189.87
2023-03-27T02:49:26.015Z,184.53
2023-03-27T02:50:26.087Z,180.22
2023-03-27T02:51:26.135Z,179.04
2023-03-27T02:52:26.211Z,178.85
2023-03-27T02:53:26.241Z,178.75
2023-03-27T02:54:26.346Z,180.07
2023-03-27T02:55:26.360Z,177.63
2023-03-27T02:56:26.438Z,178.46
2023-03-27T02:57:26.522Z,182.24
2023-03-27T02:58:26.564Z,174.44
2023-03-27T02:59:26.633Z,172.65
2023-03-27T03:00:26.688Z,173.02
2023-03-27T03:01:26.856Z,171.54
2023-03-27T03:02:26.958Z,164.23
2023-03-27T03:03:26.903Z,161.94
2023-03-27T03:04:26.958Z,161.51
2023-03-27T03:05:27.031Z,163.02
2023-03-27T03:06:27.067Z,159.30
2023-03-27T03:07:27.117Z,157.97
2023-03-27T03:08:27.204Z,157.22
2023-03-27T03:09:27.287Z,156.76
2023-03-27T03:10:27.310Z,161.06
2023-03-27T03:11:27.385Z,160.80
2023-03-27T03:12:27.428Z,158.26
2023-03-27T03:13:27.507Z,159.36
2023-03-27T03:14:27.556Z,157.83
2023-03-27T03:15:27.638Z,153.09
2023-03-27T03:16:27.701Z,157.09
2023-03-27T03:17:27.755Z,160.10
2023-03-27T03:18:27.780Z,163.58
2023-03-27T03:19:27.966Z,165.19
2023-03-27T03:20:27.905Z,164.12
2023-03-27T03:21:28.008Z,164.34
2023-03-27T03:22:28.027Z,162.07
2023-03-27T03:23:28.081Z,165.07
2023-03-27T03:24:28.142Z,164.10
2023-03-27T03:25:28.228Z,157.03
2023-03-27T03:26:28.264Z,161.52
2023-03-27T03:27:28.337Z,160.63
2023-03-27T03:28:28.369Z,164.06
2023-03-27T03:29:28.476Z,163.68
2023-03-27T03:30:28.475Z,167.74
2023-03-27T03:31:28.612Z,162.05
2023-03-27T03:32:28.639Z,163.83
2023-03-27T03:33:28.664Z,163.42
2023-03-27T03:34:28.721Z,168.66
2023-03-27T03:35:28.815Z,163.36
2023-03-27T03:36:28.841Z,165.31
2023-03-27T03:37:28.970Z,159.71
2023-03-27T03:38:28.936Z,162.78
2023-03-27T03:39:29.033Z,157.76
2023-03-27T03:40:29.029Z,161.77
2023-03-27T03:41:29.094Z,161.20
2023-03-27T03:42:29.110Z,155.61
2023-03-27T03:43:29.178Z,158.66
2023-03-27T03:44:29.225Z,155.80
2023-03-27T03:45:29.291Z,156.60
2023-03-27T03:46:29.325Z,158.42
2023-03-27T03:47:29.378Z,155.94
2023-03-27T03:48:29.432Z,156.02
2023-03-27T03:49:29.445Z,150.18
2023-03-27T03:50:29.497Z,142.74
2023-03-27T03:51:29.533Z,145.83
2023-03-27T03:52:29.602Z,142.37
2023-03-27T03:53:29.636Z,137.57
2023-03-27T03:54:29.677Z,132.95
2023-03-27T03:55:29.742Z,135.93
2023-03-27T03:56:29.796Z,130.28
2023-03-27T03:57:29.834Z,136.08
2023-03-27T03:58:34.584Z,122.18
2023-03-27T03:59:30.872Z,122.32
2023-03-27T04:00:29.856Z,119.43
2023-03-27T04:01:29.898Z,118.07
2023-03-27T04:09:29.790Z,102.42
2023-03-27T04:10:29.825Z,101.23
2023-03-27T04:11:29.877Z,104.78
2023-03-27T04:12:29.895Z,111.39
2023-03-27T04:13:29.991Z,110.66
2023-03-27T04:14:29.994Z,106.81
2023-03-27T04:15:30.034Z,111.56
2023-03-27T04:16:30.115Z,106.89
2023-03-27T04:17:30.168Z,105.75
2023-03-27T04:18:30.226Z,100.60
2023-03-27T04:19:30.208Z,105.43
2023-03-27T04:20:30.220Z,106.52
2023-03-27T04:21:30.259Z,108.99
2023-03-27T04:22:30.328Z,112.66
2023-03-27T04:23:30.409Z,112.65
2023-03-27T04:24:30.403Z,104.44
2023-03-27T04:25:30.456Z,108.41
2023-03-27T04:26:30.509Z,106.35
2023-03-27T04:27:30.551Z,103.22
2023-03-27T04:28:30.553Z,102.67
2023-03-27T04:29:30.576Z,104.63
2023-03-27T04:30:30.667Z,102.56
2023-03-27T04:31:30.708Z,92.39
2023-03-27T04:32:30.768Z,96.57
2023-03-27T04:33:31.336Z,99.92
2023-03-27T04:34:30.796Z,97.89
2023-03-27T04:35:30.866Z,95.94
2023-03-27T04:36:31.324Z,101.42
2023-03-27T04:37:30.935Z,102.01
2023-03-27T04:38:30.999Z,103.26
2023-03-27T04:41:31.076Z,104.08
2023-03-27T04:42:31.324Z,105.38
2023-03-27T04:43:31.522Z,109.21
2023-03-27T04:44:31.366Z,102.04
2023-03-27T04:46:31.290Z,95.98
2023-03-27T04:47:31.357Z,96.64
2023-03-27T04:48:31.329Z,92.74
2023-03-27T04:49:31.363Z,94.68
2023-03-27T04:50:31.398Z,90.43
2023-03-27T04:51:31.460Z,89.60
2023-03-27T04:52:31.480Z,87.83
2023-03-27T04:53:31.527Z,90.79
2023-03-27T04:54:31.757Z,95.09
2023-03-27T04:57:31.735Z,99.76
2023-03-27T04:58:31.788Z,88.72
2023-03-27T04:59:31.878Z,98.09
2023-03-27T05:01:50.803Z,25.00
2023-03-27T05:03:50.823Z,25.00
2023-03-27T05:04:50.798Z,25.00
2023-03-27T05:05:50.777Z,25.00
2023-03-27T05:06:50.770Z,24.03
2023-03-27T05:12:50.692Z,40.87
2023-03-27T05:13:50.695Z,42.23
2023-03-27T05:14:50.695Z,48.82
2023-03-27T05:16:50.767Z,48.54
2023-03-27T05:19:50.654Z,45.17
2023-03-27T05:20:50.998Z,48.37
2023-03-27T05:23:50.611Z,54.09
2023-03-27T05:24:50.602Z,53.76
2023-03-27T05:25:59.341Z,50.63
2023-03-27T05:26:51.591Z,51.03
2023-03-27T05:31:50.550Z,71.36
2023-03-27T05:32:50.592Z,69.60
2023-03-27T05:33:50.576Z,20.62
2023-03-27T05:34:50.534Z,130.47
2023-03-27T05:35:51.055Z,198.13
2023-03-27T05:41:50.656Z,258.41
2023-03-27T05:42:50.653Z,271.97
2023-03-27T05:43:51.303Z,279.72
2023-03-27T05:44:50.692Z,257.22
2023-03-27T05:46:02.567Z,250.10
2023-03-27T05:53:50.670Z,250.00
2023-03-27T05:54:50.649Z,249.07
2023-03-27T05:55:50.644Z,250.00
2023-03-27T05:56:51.682Z,250.39
2023-03-27T06:01:50.592Z,261.07
2023-03-27T06:02:50.607Z,250.00
2023-03-27T06:03:50.819Z,250.00
2023-03-27T06:04:50.565Z,250.00
2023-03-27T06:05:51.006Z,249.87
2023-03-27T06:08:50.684Z,250.00
2023-03-27T06:09:50.695Z,249.22
2023-03-27T06:10:50.765Z,249.14
2023-03-27T06:11:50.809Z,249.80
2023-03-27T06:12:50.834Z,249.15
2023-03-27T06:13:50.958Z,249.50
2023-03-27T06:14:50.915Z,250.00
2023-03-27T06:15:51.063Z,248.68
2023-03-27T06:16:51.002Z,249.31
2023-03-27T06:17:51.101Z,249.90
2023-03-27T06:18:51.104Z,249.27
2023-03-27T06:19:51.095Z,248.47
2023-03-27T06:20:51.123Z,249.67
2023-03-27T06:21:51.144Z,249.31
2023-03-27T06:22:51.167Z,248.48
2023-03-27T06:23:51.213Z,248.88
2023-03-27T06:24:51.276Z,249.71
2023-03-27T06:25:52.337Z,249.77
2023-03-27T06:32:51.226Z,249.59
2023-03-27T06:33:51.221Z,250.00
2023-03-27T06:37:51.503Z,220.34
2023-03-27T06:38:51.260Z,101.57
2023-03-27T06:39:51.159Z,65.99
2023-03-27T06:43:51.238Z,72.56
2023-03-27T06:44:51.268Z,99.34
2023-03-27T06:45:51.305Z,113.60
2023-03-27T06:49:51.385Z,140.88
2023-03-27T06:50:51.467Z,147.36
2023-03-27T06:51:51.424Z,153.02
2023-03-27T06:52:51.476Z,159.98
2023-03-27T06:53:51.570Z,162.50
2023-03-27T06:54:51.568Z,171.45
2023-03-27T06:55:51.608Z,176.99
2023-03-27T06:56:51.683Z,179.66
2023-03-27T06:57:51.652Z,183.46
2023-03-27T06:58:51.710Z,185.17
2023-03-27T06:59:51.732Z,188.15
2023-03-27T07:01:51.751Z,197.46
2023-03-27T07:02:51.835Z,199.73
2023-03-27T07:05:01.927Z,203.32
2023-03-27T07:05:52.815Z,203.47
2023-03-27T07:11:07.414Z,212.82
2023-03-27T07:11:52.698Z,213.03
2023-03-27T07:12:51.690Z,213.55
2023-03-27T07:15:51.704Z,220.15
2023-03-27T07:16:51.731Z,220.55
2023-03-27T07:20:51.751Z,223.27
2023-03-27T07:21:51.782Z,225.44
2023-03-27T07:22:51.833Z,225.17
2023-03-27T07:23:51.863Z,225.79
2023-03-27T07:24:51.897Z,227.71
2023-03-27T07:25:51.923Z,227.80
2023-03-27T07:26:52.002Z,229.14
2023-03-27T07:27:51.993Z,231.37
2023-03-27T07:28:52.039Z,230.44
2023-03-27T07:29:52.054Z,232.02
2023-03-27T07:30:52.064Z,231.43
2023-03-27T07:32:52.200Z,218.19
2023-03-27T07:33:52.228Z,202.34
2023-03-27T07:36:52.073Z,66.36
2023-03-27T07:37:52.087Z,51.45
2023-03-27T07:38:52.115Z,24.30
2023-03-27T07:39:52.072Z,11.08
2023-03-27T07:40:52.195Z,18.96
2023-03-27T07:41:52.569Z,25.83
2023-03-27T07:47:52.129Z,110.37
2023-03-27T07:52:51.994Z,138.02
2023-03-27T07:53:52.041Z,142.67
2023-03-27T07:56:52.105Z,152.95
2023-03-27T07:58:00.842Z,156.87
2023-03-27T07:58:52.926Z,157.16
2023-03-27T07:59:51.947Z,159.50
2023-03-27T08:00:51.908Z,163.62
2023-03-27T08:01:52.052Z,170.21
2023-03-27T08:03:52.074Z,182.90
2023-03-27T08:04:52.050Z,183.68
2023-03-27T08:05:51.906Z,185.36
2023-03-27T08:06:52.055Z,186.79
2023-03-27T08:07:51.890Z,188.24
2023-03-27T08:08:51.982Z,189.17
2023-03-27T08:09:52.035Z,191.62
2023-03-27T08:10:52.161Z,196.51
2023-03-27T08:11:52.188Z,196.80
2023-03-27T08:12:52.197Z,198.94
2023-03-27T08:14:52.309Z,201.54
2023-03-27T08:15:52.324Z,202.76
2023-03-27T08:16:52.406Z,204.18
2023-03-27T08:17:52.436Z,204.64
2023-03-27T08:18:52.437Z,203.89
2023-03-27T08:19:52.485Z,206.70
2023-03-27T08:20:52.518Z,207.69
2023-03-27T08:21:52.710Z,208.45
2023-03-27T08:24:52.657Z,213.71
2023-03-27T08:25:52.703Z,214.42
2023-03-27T08:26:52.758Z,213.72
2023-03-27T08:27:53.083Z,212.53
2023-03-27T08:28:52.783Z,215.11
2023-03-27T08:29:52.824Z,214.03
2023-03-27T08:30:52.891Z,216.02
2023-03-27T08:31:53.878Z,178.13
2023-03-27T08:33:52.863Z,133.16
2023-03-27T08:37:52.836Z,89.13
2023-03-27T08:40:52.797Z,74.90
2023-03-27T08:43:52.743Z,21.70
2023-03-27T08:44:52.783Z,10.86
2023-03-27T08:48:52.775Z,21.09
2023-03-27T08:49:52.790Z,25.00
2023-03-27T08:50:52.945Z,25.20
2023-03-27T08:51:52.888Z,33.82
2023-03-27T08:52:53.830Z,43.14
2023-03-27T08:53:52.939Z,56.46
2023-03-27T08:54:52.966Z,77.37
2023-03-27T08:55:52.963Z,97.50
2023-03-27T08:56:53.137Z,109.87
2023-03-27T08:57:53.097Z,111.67
2023-03-27T08:59:53.139Z,116.17
2023-03-27T09:00:53.143Z,89.78
2023-03-27T09:01:53.256Z,82.20
2023-03-27T09:08:53.300Z,142.96
2023-03-27T09:09:53.328Z,149.66
2023-03-27T09:10:53.378Z,153.83
2023-03-27T09:11:53.485Z,158.42
2023-03-27T09:13:53.477Z,167.57
2023-03-27T09:14:53.486Z,170.11
2023-03-27T09:15:53.540Z,172.00
2023-03-27T09:16:53.519Z,175.07
2023-03-27T09:17:53.631Z,157.52
2023-03-27T09:21:53.581Z,183.99
2023-03-27T09:22:53.648Z,185.12
2023-03-27T09:23:53.656Z,184.89
2023-03-27T09:24:53.726Z,186.35
2023-03-27T09:25:53.773Z,188.28
2023-03-27T09:31:53.963Z,177.40
2023-03-27T09:32:54.186Z,151.07
2023-03-27T09:34:54.095Z,191.74
2023-03-27T09:35:54.245Z,200.77
2023-03-27T09:36:54.203Z,199.16
2023-03-27T09:37:54.283Z,196.84
2023-03-27T09:38:54.320Z,197.84
2023-03-27T09:39:54.361Z,200.27
2023-03-27T09:40:54.411Z,193.80
2023-03-27T09:41:54.507Z,164.36
2023-03-27T09:42:54.728Z,187.77
2023-03-27T09:44:54.564Z,146.97
2023-03-27T09:45:54.914Z,143.03
2023-03-27T09:46:54.683Z,154.29
2023-03-27T09:47:55.166Z,173.46
2023-03-27T09:48:54.749Z,183.47
2023-03-27T09:49:54.834Z,188.19
2023-03-27T09:57:54.885Z,206.95
2023-03-27T09:58:54.771Z,210.17
2023-03-27T09:59:55.659Z,211.84
2023-03-27T10:00:54.951Z,215.09
2023-03-27T10:02:54.771Z,216.37
2023-03-27T10:03:54.824Z,212.07
2023-03-27T10:10:54.874Z,219.09
2023-03-27T10:11:54.780Z,221.26
2023-03-27T10:12:54.809Z,223.63
2023-03-27T10:13:54.784Z,221.18
2023-03-27T10:18:55.034Z,228.82
2023-03-27T10:20:55.215Z,229.33
2023-03-27T10:21:54.939Z,229.60
2023-03-27T10:24:54.883Z,233.68
2023-03-27T10:25:54.899Z,235.02
2023-03-27T10:26:54.915Z,236.67
2023-03-27T10:27:54.969Z,236.49
2023-03-27T10:28:55.026Z,238.03
2023-03-27T10:29:55.097Z,238.74
2023-03-27T10:30:55.274Z,238.90
2023-03-27T10:31:55.235Z,241.45
2023-03-27T10:32:55.283Z,242.84
2023-03-27T10:33:55.287Z,243.64
2023-03-27T10:34:55.338Z,243.01
2023-03-27T10:35:55.423Z,247.10
2023-03-27T10:36:55.441Z,212.72
2023-03-27T10:37:55.650Z,184.11
2023-03-27T10:38:55.457Z,165.94
2023-03-27T10:39:55.534Z,151.83
2023-03-27T10:40:55.691Z,134.52
2023-03-27T10:41:55.520Z,121.34
2023-03-27T10:42:55.669Z,127.00
2023-03-27T10:43:55.640Z,139.13
2023-03-27T10:44:55.626Z,148.71
2023-03-27T10:45:55.705Z,150.94
2023-03-27T10:51:55.691Z,165.60
2023-03-27T10:52:55.775Z,172.42
2023-03-27T10:55:55.783Z,173.91
2023-03-27T10:56:55.818Z,174.05
2023-03-27T10:57:55.778Z,170.42
2023-03-27T10:58:55.934Z,172.38
2023-03-27T11:03:57.227Z,172.70
2023-03-27T11:05:56.263Z,173.27
2023-03-27T11:06:56.357Z,174.78
2023-03-27T11:07:56.414Z,173.64
2023-03-27T11:08:56.490Z,173.79
2023-03-27T11:09:56.520Z,172.84
2023-03-27T11:10:56.708Z,171.53
2023-03-27T11:11:56.657Z,170.05
2023-03-27T11:12:56.696Z,171.07
2023-03-27T11:13:56.760Z,171.80
2023-03-27T11:14:56.808Z,173.52
2023-03-27T11:15:56.905Z,171.37
2023-03-27T11:16:56.964Z,170.12
2023-03-27T11:17:57.252Z,171.46
2023-03-27T11:23:57.292Z,125.33
2023-03-27T11:24:57.262Z,107.64
2023-03-27T11:25:57.290Z,95.59
2023-03-27T11:26:57.309Z,94.22
2023-03-27T11:27:57.315Z,81.53
2023-03-27T11:28:57.359Z,75.44
2023-03-27T11:29:57.429Z,71.06
2023-03-27T11:30:57.763Z,83.45
2023-03-27T11:31:57.555Z,70.71
2023-03-27T11:32:57.668Z,72.74
2023-03-27T11:33:57.636Z,84.21
2023-03-27T11:34:57.705Z,86.51
2023-03-27T11:35:57.761Z,93.82
2023-03-27T11:36:57.732Z,100.70
2023-03-27T11:37:58.170Z,104.91
2023-03-27T11:38:57.760Z,112.54
2023-03-27T11:44:57.980Z,146.58
2023-03-27T11:45:58.130Z,147.85
2023-03-27T11:46:58.102Z,146.57
2023-03-27T11:47:58.171Z,134.11
2023-03-27T11:48:58.171Z,129.06
2023-03-27T11:49:58.193Z,137.39
2023-03-27T11:50:58.515Z,146.61
2023-03-27T11:51:58.247Z,151.96
2023-03-27T11:52:58.294Z,156.17
2023-03-27T11:53:58.312Z,155.70
2023-03-27T11:54:58.364Z,150.75
2023-03-27T11:55:58.416Z,141.29
2023-03-27T11:56:58.406Z,140.71
2023-03-27T11:57:58.419Z,138.67
2023-03-27T12:08:58.548Z,141.36
2023-03-27T12:09:58.566Z,139.12
2023-03-27T12:10:58.637Z,135.39
2023-03-27T12:11:58.569Z,136.80
2023-03-27T12:12:58.879Z,138.02
2023-03-27T12:17:58.669Z,132.10
2023-03-27T12:19:02.495Z,128.75
2023-03-27T12:19:59.599Z,129.06
2023-03-27T12:20:58.654Z,130.43
2023-03-27T12:22:58.609Z,134.28
2023-03-27T12:24:59.946Z,118.00
2023-03-27T12:25:58.604Z,78.18
2023-03-27T12:28:58.550Z,83.49
2023-03-27T12:29:58.571Z,119.96
2023-03-27T12:30:58.749Z,111.62
2023-03-27T12:31:58.575Z,102.87
2023-03-27T12:34:58.505Z,85.97
2023-03-27T12:36:58.486Z,107.06
2023-03-27T12:37:58.492Z,112.09
2023-03-27T12:38:58.581Z,116.94
2023-03-27T12:39:58.587Z,129.63
2023-03-27T12:40:58.732Z,140.79
2023-03-27T12:41:58.643Z,151.43
2023-03-27T12:42:58.685Z,152.06
2023-03-27T12:46:58.720Z,123.99
2023-03-27T12:47:58.742Z,122.73
2023-03-27T12:48:58.766Z,125.29
2023-03-27T12:49:58.862Z,124.40
2023-03-27T12:50:59.040Z,124.08
2023-03-27T12:51:58.940Z,122.49
2023-03-27T12:52:58.994Z,127.02
2023-03-27T12:53:59.182Z,116.65
2023-03-27T12:58:59.258Z,127.57
2023-03-27T12:59:59.306Z,126.80
2023-03-27T13:00:59.691Z,129.49
2023-03-27T13:01:59.399Z,130.18
2023-03-27T13:02:59.546Z,134.81
2023-03-27T13:03:59.492Z,135.97
2023-03-27T13:04:59.458Z,136.68
2023-03-27T13:05:59.511Z,135.72
2023-03-27T13:06:59.534Z,136.56
2023-03-27T13:07:59.549Z,137.20
2023-03-27T13:08:59.692Z,131.71
2023-03-27T13:09:59.612Z,136.33
2023-03-27T13:11:59.661Z,122.92
2023-03-27T13:12:59.685Z,90.74
2023-03-27T13:13:59.795Z,96.54
2023-03-27T13:14:59.834Z,102.85
2023-03-27T13:16:00.016Z,68.68
2023-03-27T13:16:59.919Z,51.52
2023-03-27T13:17:59.922Z,43.83
2023-03-27T13:18:59.975Z,42.29
2023-03-27T13:20:00.071Z,37.97
2023-03-27T13:21:00.081Z,37.50
2023-03-27T13:22:00.151Z,41.28
2023-03-27T13:25:00.200Z,76.23
2023-03-27T13:26:00.201Z,97.67
2023-03-27T13:27:00.381Z,108.30
2023-03-27T13:28:00.290Z,114.19
2023-03-27T13:29:00.340Z,120.27
2023-03-27T13:36:01.034Z,164.13
2023-03-27T13:38:00.534Z,174.84
2023-03-27T13:39:00.507Z,179.61
2023-03-27T13:40:00.611Z,183.11
2023-03-27T13:41:00.628Z,182.22
2023-03-27T13:42:02.374Z,184.71
2023-03-27T13:43:00.892Z,186.94
2023-03-27T13:44:00.789Z,194.01
2023-03-27T13:45:00.870Z,197.41
2023-03-27T13:46:00.918Z,197.18
2023-03-27T13:47:00.939Z,199.47
2023-03-27T13:48:00.973Z,202.79
2023-03-27T13:51:01.010Z,207.17
2023-03-27T13:52:01.036Z,210.06
2023-03-27T13:53:01.081Z,214.29
2023-03-27T13:54:01.070Z,213.07
2023-03-27T13:55:01.132Z,216.36
2023-03-27T13:56:01.142Z,219.49
2023-03-27T13:57:01.228Z,223.14
2023-03-27T13:58:01.302Z,221.49
2023-03-27T14:03:01.256Z,227.16
2023-03-27T14:09:01.325Z,233.09
2023-03-27T14:10:01.341Z,235.15
2023-03-27T14:11:01.323Z,236.52
2023-03-27T14:12:01.411Z,236.63
2023-03-27T14:17:01.513Z,236.64
2023-03-27T14:32:01.897Z,99.89
2023-03-27T14:33:01.920Z,134.76
2023-03-27T14:34:01.957Z,146.27
2023-03-27T14:35:02.009Z,145.98
2023-03-27T14:36:02.231Z,101.44
2023-03-27T14:37:02.101Z,140.42
2023-03-27T14:38:02.174Z,132.16
2023-03-27T14:39:02.194Z,149.97
2023-03-27T14:40:02.295Z,157.22
2023-03-27T14:41:02.272Z,165.15
2023-03-27T14:46:02.343Z,161.55
2023-03-27T14:48:02.303Z,163.71
2023-03-27T14:49:02.274Z,166.56
2023-03-27T14:50:02.272Z,167.39
2023-03-27T14:55:02.255Z,171.28
2023-03-27T14:56:02.234Z,166.63
2023-03-27T14:57:02.338Z,166.39
2023-03-27T14:58:02.247Z,166.47
2023-03-27T15:05:02.234Z,165.26
2023-03-27T15:06:02.249Z,165.33
2023-03-27T15:07:02.273Z,164.17
2023-03-27T15:08:02.341Z,162.57
2023-03-27T15:09:02.327Z,162.84
2023-03-27T15:10:02.324Z,163.99
2023-03-27T15:11:02.399Z,164.79
2023-03-27T15:12:02.351Z,165.28
2023-03-27T15:13:02.367Z,170.92
2023-03-27T15:20:02.301Z,164.92
2023-03-27T15:21:02.306Z,161.57
2023-03-27T15:29:02.278Z,155.87
2023-03-27T15:37:02.290Z,159.03
2023-03-27T15:39:02.264Z,155.97
2023-03-27T15:42:02.275Z,161.41
2023-03-27T15:43:02.277Z,159.83
2023-03-27T15:50:02.333Z,66.10
2023-03-27T15:53:02.501Z,83.10
2023-03-27T15:59:02.762Z,129.48
2023-03-27T16:00:02.707Z,98.35
2023-03-27T16:01:02.762Z,84.13
2023-03-27T16:02:03.802Z,83.05
2023-03-27T16:07:02.700Z,129.00
2023-03-27T16:08:02.689Z,116.25
2023-03-27T16:09:02.682Z,115.76
2023-03-27T16:15:05.098Z,114.79
2023-03-27T16:21:05.239Z,135.23
2023-03-27T16:22:02.913Z,131.30
2023-03-27T16:23:02.984Z,115.88
2023-03-27T16:24:03.013Z,118.07
2023-03-27T16:25:03.038Z,117.29
2023-03-27T16:26:03.071Z,118.26
2023-03-27T16:27:03.107Z,111.84
2023-03-27T16:28:03.130Z,113.36
2023-03-27T16:29:03.191Z,103.52
2023-03-27T16:30:03.344Z,104.13
2023-03-27T16:31:03.209Z,102.80
2023-03-27T16:32:03.275Z,102.06
2023-03-27T16:33:03.315Z,98.32
2023-03-27T16:34:03.333Z,91.96
2023-03-27T16:35:03.361Z,92.70
2023-03-27T16:36:03.439Z,93.93
2023-03-27T16:37:03.418Z,101.90
2023-03-27T16:38:03.455Z,90.16
2023-03-27T16:41:03.552Z,86.05
2023-03-27T16:42:03.614Z,85.96
2023-03-27T16:43:03.643Z,93.02
2023-03-27T16:44:03.694Z,81.97
2023-03-27T16:45:03.760Z,86.08
2023-03-27T16:46:03.795Z,83.40
2023-03-27T16:47:03.805Z,80.80
2023-03-27T16:48:03.898Z,87.15
2023-03-27T16:49:03.894Z,78.21
2023-03-27T16:52:03.914Z,76.59
2023-03-27T16:53:03.873Z,76.09
2023-03-27T16:54:03.894Z,75.35
2023-03-27T16:55:06.440Z,72.55
2023-03-27T17:01:03.878Z,70.80
2023-03-27T17:03:03.820Z,65.34
2023-03-27T17:04:03.814Z,66.14
2023-03-27T17:05:03.903Z,63.86
2023-03-27T17:12:03.743Z,61.66
2023-03-27T17:13:03.752Z,59.19
2023-03-27T17:14:03.763Z,56.83
2023-03-27T17:15:03.823Z,58.64
2023-03-27T17:16:03.751Z,58.15
2023-03-27T17:29:03.638Z,59.39
2023-03-27T17:31:05.533Z,59.21
2023-03-27T17:32:03.753Z,57.73
2023-03-27T17:33:03.768Z,55.41
2023-03-27T17:34:03.800Z,58.25
2023-03-27T17:35:03.872Z,57.14
2023-03-27T17:36:03.961Z,55.81
2023-03-27T17:37:03.977Z,54.78
2023-03-27T17:38:04.054Z,53.94
2023-03-27T17:39:04.108Z,53.23
2023-03-27T17:40:04.153Z,54.88
2023-03-27T17:41:04.247Z,53.68
2023-03-27T17:42:04.281Z,51.32
2023-03-27T17:43:04.328Z,51.93
2023-03-27T17:44:05.638Z,51.97
2023-03-27T17:45:04.454Z,50.47
2023-03-27T17:51:09.384Z,53.44
2023-03-27T17:52:05.337Z,51.74
2023-03-27T17:53:04.331Z,49.44
2023-03-27T17:54:04.337Z,47.55
2023-03-27T17:55:04.436Z,46.23
2023-03-27T18:03:04.552Z,47.26
2023-03-27T18:04:04.651Z,50.14
2023-03-27T18:05:04.547Z,48.67
2023-03-27T18:06:04.574Z,47.63
2023-03-27T18:07:04.699Z,48.46
2023-03-27T18:08:04.721Z,47.83
2023-03-27T18:09:04.768Z,46.43
2023-03-27T18:10:05.169Z,47.67
2023-03-27T18:11:05.273Z,46.88
2023-03-27T18:17:05.142Z,51.52
2023-03-27T18:18:05.264Z,50.25
2023-03-27T18:19:05.310Z,50.97
2023-03-27T18:20:05.341Z,53.25
2023-03-27T18:21:05.414Z,54.81
2023-03-27T18:22:05.462Z,51.82
2023-03-27T18:23:05.535Z,51.77
2023-03-27T18:24:05.607Z,50.75
2023-03-27T18:25:05.671Z,49.48
2023-03-27T18:26:05.679Z,48.87
2023-03-27T18:27:05.752Z,48.22
2023-03-27T18:28:05.800Z,50.07
2023-03-27T18:29:05.841Z,51.70
2023-03-27T18:30:05.942Z,49.86
2023-03-27T18:31:06.031Z,53.05
2023-03-27T18:32:06.071Z,54.06
2023-03-27T18:33:06.126Z,53.79
2023-03-27T18:34:06.171Z,52.28
2023-03-27T18:35:06.214Z,51.20
2023-03-27T18:36:06.325Z,53.58
2023-03-27T18:37:06.363Z,55.69
2023-03-27T18:38:06.443Z,54.15
2023-03-27T18:39:06.453Z,56.84
2023-03-27T18:40:06.520Z,53.71
2023-03-27T18:41:06.594Z,52.68
2023-03-27T18:42:06.637Z,54.57
2023-03-27T18:43:06.717Z,54.06
2023-03-27T18:44:06.767Z,53.45
2023-03-27T18:45:06.857Z,54.10
2023-03-27T18:46:06.961Z,53.96
2023-03-27T18:47:06.986Z,54.25
2023-03-27T18:48:07.081Z,52.08
2023-03-27T18:49:17.571Z,52.15
2023-03-27T18:50:08.052Z,52.18
2023-03-27T18:51:07.074Z,51.38
2023-03-27T18:57:07.124Z,53.86
2023-03-27T18:59:07.157Z,50.89
2023-03-27T19:03:07.350Z,53.37
2023-03-27T19:04:07.337Z,50.04
2023-03-27T19:05:07.400Z,48.15
2023-03-27T19:06:07.464Z,44.79
2023-03-27T19:07:08.661Z,43.12
2023-03-27T19:08:07.569Z,41.38
2023-03-27T19:09:07.605Z,37.98
2023-03-27T19:10:07.679Z,36.82
2023-03-27T19:11:07.722Z,36.94
2023-03-27T19:12:07.807Z,36.50